Weather at Washington Dulles International Airport

Public forecast

Using degrees Fahrenheit for public forecast. Weather courtesy of forecast.io.

Current aviation weather report (METAR) for Washington Dulles International Airport

Retrieved 2021/07/28 12:52 UTC (56 minutes ago):

KIAD 281252Z 35006KT 10SM FEW090 28/17 A3001 RMK AO2 SLP158 T02780167

Aviation forecast (TAF) for Washington Dulles International Airport

Retrieved 2021/07/28 12:39 UTC (1 hour ago):

TAF KIAD 281137Z 2812/2918 30004KT P6SM FEW060 FEW250 FM282100 02005KT P6SM VCTS SCT050CB SCT250 FM290100 VRB03KT P6SM FEW050 SCT140 FM290900 VRB03KT P6SM SCT008 BKN200